Time;durP1;ratioP1;P1;durP2;ratioP2;P2;SDS_P1;SDS_P2;PMS_P1;PMS_P2;Temp;Humidity;BMP_temperature;BMP_pressure;BME280_temperature;BME280_humidity;BME280_pressure;Samples;Min_cycle;Max_cycle;Signal;HPM_P1;HPM_P2
2022/02/20 00:02:06;;;;;;;14.87;8.83;;;8.00;71.30;;;;;;4998576;28;20200;-76
2022/02/20 00:04:31;;;;;;;20.77;9.57;;;8.00;71.10;;;;;;4996634;28;20187;-77
2022/02/20 00:06:57;;;;;;;17.50;8.97;;;8.00;71.30;;;;;;4999890;28;20185;-76
2022/02/20 00:09:23;;;;;;;18.47;9.67;;;7.90;71.30;;;;;;4997672;28;20306;-77
2022/02/20 00:11:48;;;;;;;21.17;9.90;;;7.90;71.60;;;;;;4992517;28;20185;-76
2022/02/20 00:14:14;;;;;;;22.67;11.50;;;7.90;71.60;;;;;;4996504;28;20177;-75
2022/02/20 00:16:40;;;;;;;14.77;8.43;;;7.90;71.40;;;;;;5000635;28;20185;-75
2022/02/20 00:19:06;;;;;;;14.03;9.17;;;7.80;71.50;;;;;;4994214;28;20192;-75
2022/02/20 00:21:32;;;;;;;26.27;10.47;;;7.80;71.10;;;;;;4993770;28;20577;-75
2022/02/20 00:23:57;;;;;;;15.07;9.57;;;7.80;71.50;;;;;;4994767;28;20260;-76
2022/02/20 00:26:23;;;;;;;11.70;8.43;;;7.80;71.30;;;;;;4994880;28;20185;-75
2022/02/20 00:28:49;;;;;;;17.50;9.70;;;7.80;71.40;;;;;;4994264;28;20240;-75
2022/02/20 00:31:14;;;;;;;28.33;10.97;;;7.80;71.30;;;;;;4998337;28;20240;-74
2022/02/20 00:33:40;;;;;;;25.87;10.73;;;7.80;71.70;;;;;;4993900;28;20698;-75
2022/02/20 00:36:06;;;;;;;19.50;9.27;;;7.80;72.10;;;;;;4990157;28;20196;-75
2022/02/20 00:38:32;;;;;;;23.50;9.83;;;7.70;71.70;;;;;;4995247;28;20200;-75
2022/02/20 00:40:57;;;;;;;13.77;9.20;;;7.80;71.60;;;;;;4994705;28;20711;-74
2022/02/20 00:43:23;;;;;;;23.10;9.50;;;7.70;71.80;;;;;;4993908;28;20257;-75
2022/02/20 00:45:49;;;;;;;15.57;9.27;;;7.70;71.80;;;;;;4991814;28;20207;-74
2022/02/20 00:48:19;;;;;;;15.20;9.73;;;7.70;71.70;;;;;;4990403;28;20213;-75
2022/02/20 00:50:45;;;;;;;14.70;8.93;;;7.70;72.00;;;;;;4991221;28;20280;-75
2022/02/20 00:53:11;;;;;;;19.20;8.73;;;7.70;72.00;;;;;;4999907;28;20205;-75
2022/02/20 00:55:37;;;;;;;14.90;8.60;;;7.70;71.70;;;;;;4994541;28;20185;-75
2022/02/20 00:58:03;;;;;;;15.07;7.90;;;7.80;71.80;;;;;;4991342;28;20196;-75
2022/02/20 01:00:28;;;;;;;19.50;8.47;;;7.80;71.80;;;;;;4997811;28;20186;-75
2022/02/20 01:02:54;;;;;;;13.80;8.20;;;7.80;71.80;;;;;;4993747;28;20601;-75
2022/02/20 01:05:20;;;;;;;16.77;8.70;;;7.90;71.70;;;;;;4994497;28;20264;-75
2022/02/20 01:07:46;;;;;;;15.13;8.13;;;7.90;71.80;;;;;;4999955;28;20185;-75
2022/02/20 01:10:14;;;;;;;14.27;8.90;;;8.00;71.60;;;;;;4992566;28;20755;-75
2022/02/20 01:12:40;;;;;;;18.27;9.33;;;8.00;71.80;;;;;;4995263;28;20787;-76
2022/02/20 01:15:07;;;;;;;16.40;9.03;;;8.00;72.00;;;;;;4997806;28;20304;-76
2022/02/20 01:17:33;;;;;;;16.97;8.73;;;7.90;72.10;;;;;;4995186;28;20234;-76
2022/02/20 01:19:58;;;;;;;14.93;9.17;;;7.90;72.10;;;;;;4992022;28;20662;-76
2022/02/20 01:22:28;;;;;;;16.17;8.63;;;8.00;72.30;;;;;;4992608;28;20524;-76
2022/02/20 01:24:55;;;;;;;16.13;8.70;;;8.00;72.20;;;;;;4994466;28;20264;-76
2022/02/20 01:27:21;;;;;;;16.30;8.47;;;8.00;72.10;;;;;;4997177;28;20180;-76
2022/02/20 01:29:47;;;;;;;10.03;7.60;;;8.00;72.00;;;;;;4999711;28;20217;-76
2022/02/20 01:32:13;;;;;;;13.63;7.63;;;8.00;72.00;;;;;;4998982;28;20188;-76
2022/02/20 01:34:39;;;;;;;18.47;8.83;;;8.10;72.00;;;;;;4997042;28;20246;-74
2022/02/20 01:37:04;;;;;;;16.70;8.57;;;8.10;72.10;;;;;;4996247;28;20619;-75
2022/02/20 01:39:30;;;;;;;12.53;8.50;;;8.00;71.70;;;;;;4993923;28;20185;-74
2022/02/20 01:41:56;;;;;;;15.20;8.27;;;8.00;71.70;;;;;;4994780;28;20182;-75
2022/02/20 01:44:22;;;;;;;13.70;8.37;;;8.00;71.50;;;;;;4994297;28;20299;-75
2022/02/20 01:46:50;;;;;;;18.83;8.77;;;8.00;71.60;;;;;;4999589;28;20203;-75
2022/02/20 01:49:18;;;;;;;11.60;8.50;;;8.00;71.70;;;;;;4992066;28;20212;-75
2022/02/20 01:51:44;;;;;;;13.93;8.50;;;8.00;71.70;;;;;;4994103;28;20189;-76
2022/02/20 01:54:10;;;;;;;18.70;10.97;;;7.90;72.40;;;;;;4996261;28;20251;-76
2022/02/20 01:56:37;;;;;;;19.00;10.77;;;7.80;72.40;;;;;;5001766;28;20268;-76
2022/02/20 01:59:04;;;;;;;17.90;10.40;;;7.90;72.40;;;;;;4991568;28;20227;-76
2022/02/20 02:01:30;;;;;;;21.50;10.33;;;7.80;72.20;;;;;;4996596;28;20191;-76
2022/02/20 02:03:56;;;;;;;15.37;9.37;;;7.80;72.20;;;;;;4993494;28;20185;-76
2022/02/20 02:06:22;;;;;;;23.43;10.30;;;7.80;72.30;;;;;;4995929;28;20204;-75
2022/02/20 02:08:48;;;;;;;16.07;9.13;;;7.80;72.40;;;;;;4994481;28;20247;-75
2022/02/20 02:11:13;;;;;;;19.13;9.53;;;7.80;72.30;;;;;;4995450;28;20181;-75
2022/02/20 02:13:40;;;;;;;18.83;8.80;;;7.80;72.20;;;;;;4997313;28;20193;-76
2022/02/20 02:16:06;;;;;;;17.40;9.17;;;7.80;72.20;;;;;;4996308;28;20199;-76
2022/02/20 02:18:32;;;;;;;19.23;8.23;;;7.80;72.00;;;;;;4996673;28;20190;-75
2022/02/20 02:20:58;;;;;;;15.63;9.40;;;7.80;72.00;;;;;;4999829;28;20674;-76
2022/02/20 02:23:24;;;;;;;14.77;8.90;;;7.90;72.10;;;;;;4993259;28;20181;-75
2022/02/20 02:25:52;;;;;;;17.00;8.93;;;7.90;72.20;;;;;;4992396;28;20260;-76
2022/02/20 02:28:18;;;;;;;16.37;9.33;;;7.90;71.90;;;;;;4993924;28;20236;-75
2022/02/20 02:30:46;;;;;;;19.93;9.37;;;7.90;71.90;;;;;;4995990;28;20185;-76
2022/02/20 02:33:12;;;;;;;18.20;9.57;;;7.90;71.80;;;;;;4994533;28;20189;-75
2022/02/20 02:35:38;;;;;;;18.53;10.50;;;7.90;72.00;;;;;;5008847;28;20252;-75
2022/02/20 02:38:07;;;;;;;16.87;8.97;;;7.90;72.10;;;;;;4997287;28;20185;-75
2022/02/20 02:40:33;;;;;;;19.50;10.53;;;7.90;71.90;;;;;;4995159;28;20189;-75
2022/02/20 02:42:59;;;;;;;16.50;9.20;;;7.90;71.90;;;;;;4997833;28;20220;-76
2022/02/20 02:45:26;;;;;;;17.13;10.00;;;7.90;72.20;;;;;;4995080;28;20220;-76
2022/02/20 02:47:52;;;;;;;16.97;8.90;;;7.90;72.20;;;;;;4995419;28;20221;-76
2022/02/20 02:50:18;;;;;;;17.30;8.70;;;7.90;72.10;;;;;;4995745;28;20203;-75
2022/02/20 02:52:44;;;;;;;14.23;8.63;;;7.80;72.30;;;;;;4995526;28;20195;-75
2022/02/20 02:55:10;;;;;;;19.53;8.60;;;7.80;72.10;;;;;;4997224;28;20181;-75
2022/02/20 02:57:36;;;;;;;15.30;9.23;;;7.80;72.30;;;;;;4992104;28;20612;-75
2022/02/20 03:00:04;;;;;;;15.13;8.37;;;7.80;72.40;;;;;;4998044;28;20422;-75
2022/02/20 03:02:30;;;;;;;15.07;9.03;;;7.70;72.30;;;;;;4994696;28;20698;-76
2022/02/20 03:05:00;;;;;;;16.03;8.30;;;7.60;72.50;;;;;;4993955;28;20181;-75
2022/02/20 03:07:26;;;;;;;13.50;8.80;;;7.60;72.60;;;;;;4993658;28;20190;-75
2022/02/20 03:09:52;;;;;;;14.20;7.77;;;7.60;72.70;;;;;;4997871;28;20220;-75
2022/02/20 03:12:17;;;;;;;13.53;8.23;;;7.60;72.80;;;;;;4994631;28;20185;-75
2022/02/20 03:14:43;;;;;;;12.77;7.53;;;7.60;72.90;;;;;;4994538;28;20656;-74
2022/02/20 03:17:09;;;;;;;15.73;8.97;;;7.50;72.80;;;;;;4994913;28;20192;-74
2022/02/20 03:19:34;;;;;;;15.50;7.83;;;7.50;73.10;;;;;;4996160;28;20672;-74
2022/02/20 03:22:00;;;;;;;15.17;8.00;;;7.50;72.50;;;;;;4992394;28;20263;-77
2022/02/20 03:24:26;;;;;;;15.23;8.13;;;7.50;72.70;;;;;;4995859;28;20177;-75
2022/02/20 03:26:52;;;;;;;12.77;7.97;;;7.50;72.80;;;;;;4999244;28;20197;-75
2022/02/20 03:29:18;;;;;;;16.83;8.13;;;7.50;72.80;;;;;;4996803;28;21055;-74
2022/02/20 03:31:43;;;;;;;19.87;8.87;;;7.60;73.00;;;;;;5000276;28;20184;-74
2022/02/20 03:34:09;;;;;;;13.10;8.77;;;7.60;73.00;;;;;;5003165;28;20189;-74
2022/02/20 03:36:35;;;;;;;16.50;7.87;;;7.60;72.80;;;;;;4999888;28;20799;-75
2022/02/20 03:39:01;;;;;;;15.13;8.43;;;7.60;72.70;;;;;;4995150;28;20194;-75
2022/02/20 03:41:26;;;;;;;14.40;7.67;;;7.60;72.90;;;;;;5001062;28;20728;-75
2022/02/20 03:43:52;;;;;;;13.07;8.07;;;7.70;72.70;;;;;;4996272;28;21036;-75
2022/02/20 03:46:18;;;;;;;17.63;7.67;;;7.70;72.80;;;;;;4993876;28;20595;-75
2022/02/20 03:48:44;;;;;;;16.67;8.03;;;7.60;72.60;;;;;;4994497;28;20209;-75
2022/02/20 03:51:10;;;;;;;14.07;8.17;;;7.60;72.80;;;;;;4993314;28;20581;-75
2022/02/20 03:53:36;;;;;;;13.40;8.87;;;7.50;73.50;;;;;;5002591;28;20177;-76
2022/02/20 03:56:02;;;;;;;13.47;8.13;;;7.50;73.50;;;;;;5014521;28;20193;-76
2022/02/20 03:58:28;;;;;;;18.93;9.50;;;;;;;;;;4999551;28;20185;-76
2022/02/20 04:00:54;;;;;;;13.73;7.10;;;7.40;73.70;;;;;;4998028;28;20259;-76
2022/02/20 04:03:20;;;;;;;10.77;6.47;;;7.40;73.70;;;;;;4998567;28;20181;-75
2022/02/20 04:05:45;;;;;;;16.20;7.50;;;7.40;73.60;;;;;;4999451;28;20192;-75
2022/02/20 04:08:11;;;;;;;22.43;9.63;;;7.40;73.80;;;;;;4995408;28;20214;-75
2022/02/20 04:10:38;;;;;;;17.40;10.27;;;7.40;74.60;;;;;;4997481;28;20185;-75
2022/02/20 04:13:04;;;;;;;25.50;12.63;;;7.30;75.00;;;;;;4999195;28;20882;-74
2022/02/20 04:15:29;;;;;;;20.33;11.67;;;7.20;75.00;;;;;;4995139;28;20185;-75
2022/02/20 04:17:55;;;;;;;20.83;11.33;;;7.20;75.10;;;;;;4995020;28;20189;-75
2022/02/20 04:20:21;;;;;;;23.07;11.07;;;7.10;75.00;;;;;;4997769;28;20177;-75
2022/02/20 04:22:47;;;;;;;24.40;12.53;;;7.10;75.30;;;;;;4995333;28;20190;-76
2022/02/20 04:25:14;;;;;;;21.77;12.00;;;7.10;75.30;;;;;;4998709;28;20677;-76
2022/02/20 04:27:40;;;;;;;23.93;12.70;;;7.10;75.30;;;;;;4996666;28;20734;-76
2022/02/20 04:30:08;;;;;;;25.37;11.60;;;7.00;75.10;;;;;;4998114;28;20197;-76
2022/02/20 04:32:34;;;;;;;26.30;11.03;;;7.00;74.90;;;;;;4995937;28;20211;-75
2022/02/20 04:35:01;;;;;;;23.73;12.43;;;7.00;75.00;;;;;;4997396;28;20247;-75
2022/02/20 04:37:27;;;;;;;24.43;11.77;;;;;;;;;;5010410;28;20192;-75
2022/02/20 04:39:53;;;;;;;21.20;10.73;;;6.90;75.20;;;;;;4994673;28;20891;-75
2022/02/20 04:42:18;;;;;;;22.77;10.50;;;6.90;75.10;;;;;;5001823;28;20184;-75
2022/02/20 04:44:44;;;;;;;18.23;9.40;;;6.90;75.00;;;;;;5000285;28;21670;-76
2022/02/20 04:47:10;;;;;;;16.00;8.00;;;6.90;75.10;;;;;;4998553;28;21049;-75
2022/02/20 04:49:36;;;;;;;9.03;6.87;;;6.90;74.80;;;;;;4995664;28;20709;-75
2022/02/20 04:52:03;;;;;;;15.57;7.03;;;6.90;75.00;;;;;;4996589;28;20181;-75
2022/02/20 04:54:29;;;;;;;15.33;6.47;;;6.90;74.70;;;;;;4998760;28;20219;-75
2022/02/20 04:56:55;;;;;;;10.70;6.70;;;6.90;74.80;;;;;;4996919;28;20190;-78
2022/02/20 04:59:21;;;;;;;9.90;6.30;;;6.90;74.80;;;;;;4996939;28;20189;-74
2022/02/20 05:01:46;;;;;;;11.67;6.60;;;6.90;74.80;;;;;;4995270;28;20181;-75
2022/02/20 05:04:12;;;;;;;14.00;5.93;;;6.90;74.60;;;;;;4994671;28;20194;-77
2022/02/20 05:06:38;;;;;;;14.83;6.87;;;6.90;74.70;;;;;;4995469;28;20924;-75
2022/02/20 05:09:04;;;;;;;12.20;6.77;;;6.90;74.60;;;;;;4993452;28;20221;-74
2022/02/20 05:11:30;;;;;;;15.60;6.83;;;6.90;74.30;;;;;;4997015;28;20268;-75
2022/02/20 05:13:58;;;;;;;13.73;7.10;;;7.00;74.30;;;;;;4999548;28;20260;-74
2022/02/20 05:16:24;;;;;;;11.57;6.80;;;6.90;74.50;;;;;;4997509;28;20192;-74
2022/02/20 05:18:50;;;;;;;13.63;6.37;;;6.90;74.60;;;;;;4996962;28;20285;-74
2022/02/20 05:21:16;;;;;;;12.43;7.17;;;6.90;74.70;;;;;;4996632;28;20192;-75
2022/02/20 05:23:41;;;;;;;21.50;7.37;;;6.90;74.70;;;;;;4995117;28;20189;-75
2022/02/20 05:26:07;;;;;;;11.40;6.07;;;6.90;74.80;;;;;;4995337;28;20189;-75
2022/02/20 05:28:33;;;;;;;12.33;6.10;;;6.90;74.30;;;;;;4991884;28;20224;-75
2022/02/20 05:30:59;;;;;;;9.13;5.90;;;6.90;74.10;;;;;;4994804;28;20185;-75
2022/02/20 05:33:24;;;;;;;7.33;5.87;;;7.00;74.30;;;;;;4995739;28;21251;-75
2022/02/20 05:35:50;;;;;;;11.80;6.77;;;7.00;74.10;;;;;;4997139;28;20177;-75
2022/02/20 05:38:16;;;;;;;13.03;7.03;;;6.90;74.00;;;;;;4995838;28;20194;-75
2022/02/20 05:40:42;;;;;;;11.53;6.37;;;6.90;74.10;;;;;;4997332;28;20675;-76
2022/02/20 05:43:08;;;;;;;9.63;5.90;;;6.90;74.20;;;;;;4995602;28;20267;-74
2022/02/20 05:45:35;;;;;;;11.37;6.50;;;6.90;74.30;;;;;;4991860;28;20193;-76
2022/02/20 05:48:03;;;;;;;10.10;6.10;;;6.90;74.40;;;;;;4995465;28;20236;-76
2022/02/20 05:50:29;;;;;;;12.57;5.90;;;6.90;74.50;;;;;;4994325;28;20925;-76
2022/02/20 05:52:55;;;;;;;6.07;5.13;;;6.90;74.40;;;;;;4998463;28;20181;-76
2022/02/20 05:55:21;;;;;;;7.00;5.60;;;6.90;74.50;;;;;;4996558;28;20185;-76
2022/02/20 05:57:49;;;;;;;9.67;5.17;;;6.90;74.50;;;;;;4995785;28;20181;-76
2022/02/20 06:00:17;;;;;;;7.17;4.83;;;7.00;74.20;;;;;;4998796;28;20565;-75
2022/02/20 06:02:43;;;;;;;7.97;4.97;;;7.00;74.00;;;;;;4993915;28;20181;-76
2022/02/20 06:05:10;;;;;;;8.83;4.93;;;7.10;73.90;;;;;;4991474;28;20181;-76
2022/02/20 06:07:37;;;;;;;8.37;4.53;;;7.10;73.80;;;;;;4992481;28;20256;-76
2022/02/20 06:10:04;;;;;;;5.63;4.87;;;7.20;73.60;;;;;;4996466;28;20229;-76
2022/02/20 06:12:30;;;;;;;7.77;5.30;;;7.20;73.50;;;;;;4998228;28;20184;-76
2022/02/20 06:14:56;;;;;;;10.33;5.20;;;7.20;73.50;;;;;;4996858;28;20189;-75
2022/02/20 06:17:22;;;;;;;8.77;5.43;;;7.20;73.20;;;;;;4993800;28;20825;-75
2022/02/20 06:19:48;;;;;;;10.27;5.20;;;7.20;73.20;;;;;;4993248;28;20197;-75
2022/02/20 06:22:13;;;;;;;5.50;4.67;;;7.30;73.10;;;;;;4996003;28;20811;-75
2022/02/20 06:24:39;;;;;;;11.87;4.80;;;7.40;72.80;;;;;;4996992;28;20698;-75
2022/02/20 06:27:05;;;;;;;13.87;5.77;;;7.50;72.80;;;;;;4995285;28;20951;-75
2022/02/20 06:29:31;;;;;;;11.97;4.67;;;7.50;72.70;;;;;;4993999;28;20213;-74
2022/02/20 06:31:58;;;;;;;11.43;5.47;;;7.50;72.60;;;;;;4993860;28;20188;-74
2022/02/20 06:34:23;;;;;;;8.27;4.97;;;7.60;72.70;;;;;;4992811;28;20178;-74
2022/02/20 06:36:49;;;;;;;7.67;4.90;;;7.60;72.40;;;;;;4998070;28;20547;-74
2022/02/20 06:39:15;;;;;;;5.73;4.80;;;7.70;72.10;;;;;;4997706;28;20440;-77
2022/02/20 06:41:40;;;;;;;10.23;4.63;;;7.80;71.80;;;;;;4995830;28;20955;-77
2022/02/20 06:44:07;;;;;;;9.33;4.53;;;;;;;;;;4994036;28;20192;-77
2022/02/20 06:46:33;;;;;;;9.50;6.00;;;8.00;71.80;;;;;;5002711;28;20197;-77
2022/02/20 06:48:59;;;;;;;5.90;5.00;;;8.00;71.70;;;;;;4996816;28;20221;-78
2022/02/20 06:51:26;;;;;;;5.27;4.60;;;8.10;71.70;;;;;;4993494;28;20200;-77
2022/02/20 06:53:51;;;;;;;8.80;4.90;;;8.20;71.60;;;;;;4993539;28;20675;-76
2022/02/20 06:56:17;;;;;;;12.20;5.83;;;8.20;71.70;;;;;;4990181;28;20189;-77
2022/02/20 06:58:43;;;;;;;8.00;5.67;;;8.30;71.80;;;;;;5000944;28;20532;-78
2022/02/20 07:01:09;;;;;;;13.03;6.13;;;8.30;71.60;;;;;;5018575;28;20185;-78
2022/02/20 07:03:35;;;;;;;5.87;4.77;;;8.40;71.70;;;;;;5010597;28;20671;-78
2022/02/20 07:06:01;;;;;;;7.23;4.93;;;8.40;71.70;;;;;;5018054;28;20725;-77
2022/02/20 07:08:27;;;;;;;5.47;4.37;;;8.50;72.20;;;;;;5014718;28;20197;-77
2022/02/20 07:10:52;;;;;;;5.50;4.13;;;8.50;72.90;;;;;;5015664;28;20174;-78
2022/02/20 07:13:18;;;;;;;8.07;5.07;;;8.60;73.50;;;;;;5014567;28;20186;-78
2022/02/20 07:15:44;;;;;;;6.63;4.53;;;8.60;73.30;;;;;;5015543;28;20192;-78
2022/02/20 07:18:09;;;;;;;7.37;4.50;;;8.60;73.60;;;;;;5019319;28;20196;-79
2022/02/20 07:20:35;;;;;;;7.77;4.73;;;8.60;73.30;;;;;;5017355;28;20212;-78
2022/02/20 07:23:01;;;;;;;8.70;4.97;;;8.70;73.70;;;;;;5013478;28;20181;-78
2022/02/20 07:25:27;;;;;;;11.57;4.20;;;8.80;73.50;;;;;;5002274;28;20181;-76
2022/02/20 07:27:55;;;;;;;4.33;3.93;;;8.80;73.50;;;;;;4994128;28;20882;-77
2022/02/20 07:30:28;;;;;;;4.67;4.23;;;8.90;73.30;;;;;;4998347;28;20208;-76
2022/02/20 07:32:54;;;;;;;4.13;3.77;;;9.00;72.90;;;;;;4997104;28;20177;-73
2022/02/20 07:35:20;;;;;;;8.63;4.10;;;9.10;72.80;;;;;;4999190;28;20248;-75
2022/02/20 07:37:47;;;;;;;4.20;3.80;;;9.20;72.90;;;;;;4993621;28;20193;-73
2022/02/20 07:40:15;;;;;;;6.03;4.23;;;9.40;72.70;;;;;;5002477;28;20184;-74
2022/02/20 07:42:41;;;;;;;8.47;4.50;;;9.40;72.70;;;;;;5015272;28;20185;-74
2022/02/20 07:45:07;;;;;;;5.07;4.60;;;9.50;72.50;;;;;;4995764;28;20192;-75
2022/02/20 07:47:35;;;;;;;5.73;5.17;;;;;;;;;;4995751;28;20177;-76
2022/02/20 07:50:01;;;;;;;6.90;4.57;;;;;;;;;;4997082;28;20351;-76
2022/02/20 07:52:28;;;;;;;9.83;6.73;;;9.80;72.00;;;;;;4998224;28;20185;-75
2022/02/20 07:54:54;;;;;;;7.67;5.10;;;9.90;72.00;;;;;;5011026;28;20185;-77
2022/02/20 07:57:21;;;;;;;6.30;5.03;;;10.10;71.70;;;;;;5003293;28;20943;-77
2022/02/20 07:59:47;;;;;;;10.73;6.33;;;10.20;71.60;;;;;;4997875;28;20192;-77
2022/02/20 08:02:12;;;;;;;20.43;10.87;;;10.30;71.40;;;;;;5001412;28;20181;-77
2022/02/20 08:04:38;;;;;;;26.90;11.70;;;10.40;70.80;;;;;;5006363;28;20187;-77
2022/02/20 08:07:08;;;;;;;21.10;12.77;;;10.50;70.30;;;;;;5015126;28;20200;-76
2022/02/20 08:09:33;;;;;;;26.63;14.90;;;10.60;70.10;;;;;;4999034;28;20212;-74
2022/02/20 08:11:59;;;;;;;30.55;15.32;;;10.80;69.90;;;;;;4997533;28;20195;-75
2022/02/20 08:14:25;;;;;;;38.80;17.80;;;10.90;69.80;;;;;;4992594;28;20285;-75
2022/02/20 08:16:50;;;;;;;38.40;17.90;;;11.10;69.50;;;;;;4999945;28;20610;-76
2022/02/20 08:19:16;;;;;;;36.73;18.03;;;11.20;69.20;;;;;;4995554;28;20200;-76
2022/02/20 08:21:42;;;;;;;45.53;18.35;;;11.40;69.20;;;;;;4994273;28;20233;-77
2022/02/20 08:24:07;;;;;;;36.90;18.92;;;11.60;69.00;;;;;;4997675;28;20953;-76
2022/02/20 08:26:33;;;;;;;35.78;18.35;;;11.80;68.60;;;;;;5001814;28;20185;-75
2022/02/20 08:28:59;;;;;;;37.42;18.40;;;12.00;67.80;;;;;;4993121;28;20299;-77
2022/02/20 08:31:24;;;;;;;38.72;17.80;;;12.10;67.50;;;;;;4993166;28;20186;-77
2022/02/20 08:33:51;;;;;;;33.10;17.52;;;12.30;67.10;;;;;;4998584;28;20204;-75
2022/02/20 08:36:17;;;;;;;27.33;16.80;;;12.40;66.70;;;;;;4997094;28;20185;-76
2022/02/20 08:38:43;;;;;;;28.00;15.32;;;12.50;66.80;;;;;;5001044;28;20759;-76
2022/02/20 08:41:09;;;;;;;28.13;15.38;;;12.70;66.20;;;;;;4995341;28;20178;-76
2022/02/20 08:43:35;;;;;;;23.40;13.63;;;12.80;65.50;;;;;;4998290;28;20181;-77
2022/02/20 08:46:01;;;;;;;19.92;13.38;;;12.90;65.40;;;;;;4996183;28;20189;-77
2022/02/20 08:48:30;;;;;;;24.85;13.30;;;13.00;65.20;;;;;;4994902;28;20299;-78
2022/02/20 08:50:56;;;;;;;18.20;12.55;;;13.10;65.00;;;;;;5012391;28;20221;-75
2022/02/20 08:53:21;;;;;;;21.42;13.02;;;13.20;64.80;;;;;;4996871;28;20741;-76
2022/02/20 08:55:47;;;;;;;21.88;13.35;;;13.30;64.60;;;;;;4997087;28;20184;-76
2022/02/20 08:58:13;;;;;;;27.02;13.27;;;;;;;;;;4993333;28;20215;-76
2022/02/20 09:00:39;;;;;;;25.52;13.00;;;13.40;64.10;;;;;;4996182;28;20545;-75
2022/02/20 09:03:05;;;;;;;21.35;12.23;;;13.50;63.90;;;;;;4995357;28;20223;-75
2022/02/20 09:05:30;;;;;;;19.48;12.18;;;13.50;63.70;;;;;;4991252;28;20637;-76
2022/02/20 09:07:56;;;;;;;17.40;11.43;;;13.60;63.50;;;;;;4991609;28;20588;-76
2022/02/20 09:10:22;;;;;;;16.30;10.63;;;13.60;63.50;;;;;;4994227;28;20678;-75
2022/02/20 09:12:47;;;;;;;25.75;12.38;;;13.50;63.70;;;;;;4992936;28;20271;-75
2022/02/20 09:15:13;;;;;;;22.25;12.40;;;13.50;63.40;;;;;;4996790;28;20268;-75
2022/02/20 09:17:40;;;;;;;25.20;13.70;;;13.50;63.60;;;;;;4991400;28;20781;-75
2022/02/20 09:20:06;;;;;;;16.08;11.20;;;13.50;63.70;;;;;;4996934;28;20276;-75
2022/02/20 09:22:32;;;;;;;21.35;13.13;;;13.50;63.30;;;;;;4995059;28;20186;-75
2022/02/20 09:24:58;;;;;;;19.08;12.30;;;13.60;63.40;;;;;;4991636;28;20357;-76
2022/02/20 09:27:24;;;;;;;20.08;11.45;;;13.60;63.40;;;;;;4989941;28;20208;-76
2022/02/20 09:29:49;;;;;;;20.13;10.27;;;13.60;63.20;;;;;;4992852;28;20299;-78
2022/02/20 09:32:17;;;;;;;18.70;11.43;;;13.70;63.40;;;;;;4993063;28;20180;-77
2022/02/20 09:34:43;;;;;;;20.55;12.63;;;13.80;63.20;;;;;;5005379;28;20195;-76
2022/02/20 09:37:09;;;;;;;17.77;12.30;;;13.90;63.10;;;;;;4996503;28;20189;-76
2022/02/20 09:39:35;;;;;;;23.35;13.07;;;14.00;62.90;;;;;;4994225;28;20189;-76
2022/02/20 09:42:01;;;;;;;20.10;12.57;;;14.10;62.90;;;;;;4993769;28;20188;-76
2022/02/20 09:44:27;;;;;;;20.92;11.95;;;14.40;62.90;;;;;;5005433;28;20774;-76
2022/02/20 09:46:55;;;;;;;17.42;10.27;;;14.70;62.40;;;;;;4995198;28;20255;-76
2022/02/20 09:49:26;;;;;;;20.65;12.48;;;14.90;62.00;;;;;;4991945;28;20244;-76
2022/02/20 09:51:54;;;;;;;12.48;9.93;;;15.20;61.20;;;;;;4991935;28;20225;-75
2022/02/20 09:54:20;;;;;;;16.25;10.65;;;15.60;61.00;;;;;;4990060;28;21160;-75
2022/02/20 09:56:46;;;;;;;16.75;10.90;;;16.00;60.30;;;;;;4995914;28;20181;-75
2022/02/20 09:59:11;;;;;;;17.05;11.20;;;16.30;60.00;;;;;;4990196;28;20668;-75
2022/02/20 10:02:04;;;;;;;15.80;10.88;;;16.60;59.60;;;;;;4993110;28;20259;-75
2022/02/20 10:04:44;;;;;;;13.90;10.43;;;16.80;58.60;;;;;;4995517;28;20977;-75
2022/02/20 10:07:36;;;;;;;13.35;9.70;;;17.00;58.70;;;;;;4996922;28;20192;-79
2022/02/20 10:10:20;;;;;;;17.52;10.88;;;17.20;58.10;;;;;;4993958;28;20700;-80
2022/02/20 10:12:54;;;;;;;16.30;10.30;;;17.30;58.00;;;;;;4992823;28;20200;-80
2022/02/20 10:15:30;;;;;;;12.25;9.63;;;17.50;57.90;;;;;;4990631;28;20238;-77
2022/02/20 10:18:09;;;;;;;11.52;9.00;;;17.80;57.80;;;;;;4993677;28;20302;-73
2022/02/20 10:20:35;;;;;;;15.32;8.52;;;18.10;57.60;;;;;;4991733;28;20287;-73
2022/02/20 10:23:05;;;;;;;13.07;8.57;;;18.60;57.20;;;;;;4990744;28;20226;-75
2022/02/20 10:25:31;;;;;;;15.00;9.00;;;18.90;55.80;;;;;;4996081;28;20191;-74
2022/02/20 10:27:57;;;;;;;10.82;8.40;;;19.40;55.40;;;;;;4995177;28;20181;-74
2022/02/20 10:30:30;;;;;;;14.50;8.77;;;19.90;55.60;;;;;;4992532;28;20196;-74
2022/02/20 10:33:22;;;;;;;13.52;8.60;;;20.50;52.90;;;;;;4995908;28;20190;-75
2022/02/20 10:35:53;;;;;;;15.02;9.00;;;21.10;53.70;;;;;;4994700;28;20188;-76
2022/02/20 10:38:24;;;;;;;12.50;9.55;;;21.90;53.10;;;;;;4999417;28;20268;-76
2022/02/20 10:40:55;;;;;;;11.15;8.75;;;22.60;51.70;;;;;;4999927;28;20185;-75
2022/02/20 10:43:33;;;;;;;10.15;7.57;;;23.10;50.80;;;;;;4997127;28;20248;-76
2022/02/20 10:46:21;;;;;;;9.23;6.75;;;23.60;49.40;;;;;;4995437;28;20765;-76
2022/02/20 10:48:52;;;;;;;8.85;6.80;;;24.10;49.70;;;;;;4997278;28;20352;-76
2022/02/20 10:51:19;;;;;;;7.93;6.18;;;24.80;48.90;;;;;;4996159;28;20604;-77
2022/02/20 10:53:50;;;;;;;10.07;7.07;;;25.40;48.40;;;;;;4993872;28;20185;-75
2022/02/20 10:56:16;;;;;;;12.40;6.93;;;26.10;47.90;;;;;;4999645;28;20256;-77
2022/02/20 10:58:49;;;;;;;9.48;7.70;;;26.90;47.40;;;;;;5001278;28;20178;-78
2022/02/20 11:01:26;;;;;;;10.32;7.63;;;27.60;46.30;;;;;;4999136;28;20191;-73
2022/02/20 11:04:04;;;;;;;8.68;7.80;;;28.30;45.20;;;;;;5000934;28;20189;-76
2022/02/20 11:06:31;;;;;;;17.65;8.50;;;28.80;45.10;;;;;;4998962;28;20180;-76
2022/02/20 11:08:57;;;;;;;12.02;8.15;;;29.20;43.90;;;;;;4998174;28;20235;-75
2022/02/20 11:11:37;;;;;;;12.30;9.90;;;29.40;44.20;;;;;;4997128;28;20698;-75
2022/02/20 11:14:04;;;;;;;12.70;8.88;;;29.60;43.00;;;;;;4998910;28;20190;-75
2022/02/20 11:16:31;;;;;;;11.15;9.13;;;29.60;43.20;;;;;;5000296;28;20190;-75
2022/02/20 11:19:02;;;;;;;15.15;9.27;;;29.50;43.40;;;;;;4998925;28;20185;-75
2022/02/20 11:21:29;;;;;;;12.15;9.07;;;29.10;42.60;;;;;;5001789;28;20190;-75
2022/02/20 11:23:58;;;;;;;11.77;9.57;;;28.60;42.60;;;;;;4998223;28;20558;-75
2022/02/20 11:26:28;;;;;;;11.52;8.77;;;27.80;43.90;;;;;;4994917;28;20220;-75
2022/02/20 11:28:58;;;;;;;13.60;9.40;;;27.10;45.10;;;;;;4995477;28;20205;-76
2022/02/20 11:31:25;;;;;;;11.88;9.20;;;26.40;44.90;;;;;;4997954;28;20193;-76
2022/02/20 11:33:55;;;;;;;11.38;8.60;;;25.80;46.60;;;;;;4996471;28;20181;-76
2022/02/20 11:36:26;;;;;;;11.25;8.07;;;25.40;46.80;;;;;;4996120;28;20184;-75
2022/02/20 11:39:11;;;;;;;8.15;7.28;;;25.10;47.30;;;;;;4995985;28;20196;-75
2022/02/20 11:41:39;;;;;;;11.65;7.45;;;24.60;46.70;;;;;;4996855;28;20185;-75
2022/02/20 11:44:19;;;;;;;11.02;7.47;;;24.20;47.90;;;;;;4996437;28;20189;-75
2022/02/20 11:46:47;;;;;;;10.68;8.30;;;23.70;47.50;;;;;;4997501;28;20185;-76
2022/02/20 11:49:17;;;;;;;10.68;7.68;;;23.20;49.30;;;;;;5010318;28;20220;-76
2022/02/20 11:52:15;;;;;;;9.57;7.05;;;23.00;49.30;;;;;;4996933;28;20189;-75
2022/02/20 11:54:41;;;;;;;6.63;5.43;;;23.10;49.00;;;;;;4982393;28;20197;-75
2022/02/20 11:57:15;;;;;;;9.10;5.68;;;23.20;49.60;;;;;;4979611;28;20186;-75
2022/02/20 12:00:01;;;;;;;6.38;5.30;;;23.20;49.70;;;;;;4963239;28;20182;-75
2022/02/20 12:02:27;;;;;;;5.07;4.60;;;23.10;49.00;;;;;;4934152;29;20199;-74
2022/02/20 12:04:53;;;;;;;7.60;5.32;;;22.70;48.90;;;;;;4925459;29;20308;-75
2022/02/20 12:07:41;;;;;;;9.02;6.15;;;22.20;50.40;;;;;;4921635;29;20706;-75
2022/02/20 12:10:20;;;;;;;6.57;5.95;;;21.90;50.30;;;;;;4909105;29;20329;-75
2022/02/20 12:12:51;;;;;;;6.47;5.78;;;21.50;51.00;;;;;;4921529;29;20721;-74
2022/02/20 12:15:42;;;;;;;7.43;6.18;;;21.20;51.20;;;;;;4928284;29;20192;-74
2022/02/20 12:18:10;;;;;;;6.53;5.13;;;21.10;51.60;;;;;;4924758;29;20212;-76
2022/02/20 12:20:57;;;;;;;9.13;5.05;;;20.90;51.90;;;;;;4927514;29;20210;-74
2022/02/20 12:23:32;;;;;;;7.22;5.32;;;20.70;51.80;;;;;;4909744;29;20222;-74
2022/02/20 12:26:01;;;;;;;8.68;5.45;;;20.50;52.20;;;;;;4925452;29;20200;-75
2022/02/20 12:28:41;;;;;;;7.70;5.25;;;20.30;52.70;;;;;;4927289;29;20301;-75
2022/02/20 12:31:15;;;;;;;8.02;5.25;;;20.00;52.80;;;;;;4955400;28;20289;-74
2022/02/20 12:33:48;;;;;;;6.57;4.20;;;19.80;53.60;;;;;;4964662;28;20207;-74
2022/02/20 12:36:27;;;;;;;6.35;5.07;;;19.80;53.90;;;;;;4962605;28;20189;-75
2022/02/20 12:39:00;;;;;;;4.75;4.32;;;20.00;54.10;;;;;;4970018;28;20270;-75
2022/02/20 12:41:27;;;;;;;6.07;4.35;;;20.40;53.60;;;;;;4992010;28;20196;-75
2022/02/20 12:43:55;;;;;;;7.30;4.72;;;20.60;53.00;;;;;;4997446;28;20192;-75
2022/02/20 12:46:21;;;;;;;5.65;4.85;;;20.70;52.70;;;;;;4993767;28;20193;-75
2022/02/20 12:48:48;;;;;;;8.05;4.53;;;20.60;52.70;;;;;;4991697;28;20678;-75